首页
METAR-TAF:

METAR-TAF

机场 :

图尔, 法国

纬度: 47-27N, 经度: 000-43E, 海拔: 108米

当前天气观测

该预报发布于35分钟前的21:00 UTC
风速4节,风向西南
温度 3°C
湿度 100%
气压 1006 hPa
能见度10公里或以上
1500米以下无云,无积雨云

METAR: LFOT 122100Z AUTO 23004KT CAVOK 03/03 Q1006 NOSIG

时间: 22:35 (21:35 UTC)

预报

该预报发布于4小时和35分钟前的17:00 UTC
预报有效从12日的 18点(UTC)到 13日的 18点(UTC)
风速6节,风向西
能见度10公里或以上
散云层高于4000英尺
几率 30% :
短暂存在
从 13日的 04点(UTC)到 13日的 09点(UTC)
能見度: 4000
多云层高于800英尺
多云层高于4000英尺
轻雾
成为
从 13日的 14点(UTC)到 13日的 16点(UTC)
多云层高于3000英尺

TAF: LFOT 121700Z 1218/1318 26006KT 9999 SCT040 PROB30 TEMPO 1304/1309 4000 BR BKN008 BKN040 BECMG 1314/1316 BKN030

超过4000个机场的气象观测和天气预报(METAR&TAF报告)。

可查询的气象台以黄色和红色小点在地图上表示。

将鼠标移到小点上方,可查看气象台名称。

然后点击查看天气观测和预报。

如需切换地图:点击带黑十字的绿色按钮放大地图;点击带横线的绿色按钮缩小地图;或者点击绿色箭头查看邻近地区的地图。


METAR-TAF: